createdAt,value
2022-11-05T00:01:59.206Z,8.53
2022-11-05T00:07:26.876Z,8.51
2022-11-05T00:12:47.719Z,8.31
2022-11-05T00:17:49.700Z,8.21
2022-11-05T00:23:10.461Z,8.27
2022-11-05T00:28:12.446Z,8.27
2022-11-05T00:33:14.942Z,8.26
2022-11-05T00:38:16.869Z,8.20
2022-11-05T00:43:37.673Z,8.04
2022-11-05T00:48:58.210Z,7.94
2022-11-05T00:54:00.782Z,7.95
2022-11-05T00:59:03.017Z,7.85
2022-11-05T01:04:05.403Z,7.82
2022-11-05T01:09:07.367Z,7.80
2022-11-05T01:14:12.150Z,7.69
2022-11-05T01:19:14.075Z,7.64
2022-11-05T01:24:15.963Z,7.66
2022-11-05T01:29:18.049Z,7.65
2022-11-05T01:34:19.899Z,7.48
2022-11-05T01:39:21.786Z,7.38
2022-11-05T01:44:56.180Z,7.33
2022-11-05T01:50:00.590Z,7.19
2022-11-05T01:55:03.571Z,7.30
2022-11-05T02:00:06.683Z,7.33
2022-11-05T02:05:15.410Z,7.27
2022-11-05T02:10:20.419Z,7.28
2022-11-05T02:15:36.817Z,7.16
2022-11-05T02:20:53.512Z,7.13
2022-11-05T02:26:23.114Z,7.17
2022-11-05T02:31:36.934Z,7.16
2022-11-05T02:36:55.717Z,7.13
2022-11-05T02:42:15.466Z,7.12
2022-11-05T02:47:43.427Z,7.08
2022-11-05T02:53:07.627Z,7.06
2022-11-05T02:58:09.746Z,6.79
2022-11-05T03:03:30.169Z,6.68
2022-11-05T03:08:47.234Z,6.69
2022-11-05T03:14:16.476Z,6.73
2022-11-05T03:19:28.032Z,6.63
2022-11-05T03:24:33.552Z,6.54
2022-11-05T03:29:39.611Z,6.60
2022-11-05T03:34:50.482Z,6.53
2022-11-05T03:39:55.321Z,6.67
2022-11-05T03:44:59.184Z,6.70
2022-11-05T03:50:22.173Z,6.63
2022-11-05T03:55:27.928Z,6.54
2022-11-05T04:00:29.910Z,6.48
2022-11-05T04:05:31.987Z,6.40
2022-11-05T04:10:52.584Z,6.29
2022-11-05T04:16:14.517Z,6.22
2022-11-05T04:21:35.581Z,6.15
2022-11-05T04:26:40.079Z,6.29
2022-11-05T04:31:42.161Z,6.19
2022-11-05T04:36:43.951Z,6.20
2022-11-05T04:41:48.309Z,6.28
2022-11-05T04:46:50.146Z,6.29
2022-11-05T04:51:51.943Z,6.28
2022-11-05T04:56:53.775Z,6.29
2022-11-05T05:01:55.834Z,6.26
2022-11-05T05:06:57.749Z,6.21
2022-11-05T05:11:59.635Z,6.17
2022-11-05T05:17:01.511Z,5.94
2022-11-05T05:22:03.456Z,5.95
2022-11-05T05:27:05.411Z,5.87
2022-11-05T05:32:07.506Z,5.86
2022-11-05T05:37:10.614Z,5.79
2022-11-05T05:42:13.157Z,5.89
2022-11-05T05:47:15.016Z,5.87
2022-11-05T05:52:16.869Z,5.76
2022-11-05T05:57:18.730Z,5.65
2022-11-05T06:02:20.786Z,5.62
2022-11-05T06:07:22.880Z,5.57
2022-11-05T06:12:24.679Z,5.61
2022-11-05T06:17:26.525Z,5.54
2022-11-05T06:22:28.418Z,5.51
2022-11-05T06:27:30.336Z,5.50
2022-11-05T06:32:32.247Z,5.57
2022-11-05T06:37:34.263Z,5.50
2022-11-05T06:42:36.246Z,5.45
2022-11-05T06:47:38.358Z,5.44
2022-11-05T06:52:41.381Z,5.45
2022-11-05T06:57:43.331Z,5.52
2022-11-05T07:02:45.707Z,5.50
2022-11-05T07:07:47.670Z,5.49
2022-11-05T07:12:49.506Z,5.42
2022-11-05T07:17:51.344Z,5.41
2022-11-05T07:23:01.776Z,5.49
2022-11-05T07:28:04.518Z,5.44
2022-11-05T07:33:06.608Z,5.54
2022-11-05T07:38:08.651Z,5.70
2022-11-05T07:43:10.797Z,5.72
2022-11-05T07:48:12.760Z,5.76
2022-11-05T07:53:15.204Z,5.85
2022-11-05T07:58:27.065Z,5.91
2022-11-05T08:03:29.222Z,5.92
2022-11-05T08:08:31.251Z,6.11
2022-11-05T08:13:33.946Z,6.26
2022-11-05T08:18:36.111Z,6.37
2022-11-05T08:23:39.428Z,6.56
2022-11-05T08:28:41.284Z,6.73
2022-11-05T08:33:43.151Z,6.87
2022-11-05T08:38:45.051Z,7.03
2022-11-05T08:43:46.931Z,7.32
2022-11-05T08:48:48.864Z,7.61
2022-11-05T08:53:50.722Z,7.85
2022-11-05T08:58:52.687Z,8.29
2022-11-05T09:03:54.601Z,9.39
2022-11-05T09:08:56.777Z,11.11
2022-11-05T09:13:58.633Z,12.08
2022-11-05T09:19:02.374Z,12.88
2022-11-05T09:24:04.636Z,13.73
2022-11-05T09:29:09.235Z,14.08
2022-11-05T09:34:15.490Z,14.48
2022-11-05T09:39:17.355Z,14.64
2022-11-05T09:44:23.067Z,14.72
2022-11-05T09:49:29.416Z,15.21
2022-11-05T09:54:32.155Z,15.43
2022-11-05T09:59:40.871Z,15.46
2022-11-05T10:04:50.141Z,15.96
2022-11-05T10:09:56.054Z,16.23
2022-11-05T10:15:13.263Z,16.68
2022-11-05T10:20:23.728Z,17.53
2022-11-05T10:25:30.223Z,17.77
2022-11-05T10:30:32.377Z,18.25
2022-11-05T10:35:36.163Z,18.34
2022-11-05T10:41:04.381Z,18.22
2022-11-05T10:46:06.415Z,18.52
2022-11-05T10:51:08.940Z,17.67
2022-11-05T10:56:31.390Z,16.53
2022-11-05T11:01:33.579Z,15.80
2022-11-05T11:06:38.071Z,15.11
2022-11-05T11:11:42.666Z,14.68
2022-11-05T11:16:46.634Z,14.46
2022-11-05T11:22:09.504Z,14.40
2022-11-05T11:27:16.568Z,14.34
2022-11-05T11:32:20.616Z,14.52
2022-11-05T11:37:34.390Z,14.59
2022-11-05T11:42:40.477Z,14.53
2022-11-05T11:47:46.357Z,14.33
2022-11-05T11:52:48.247Z,14.38
2022-11-05T11:57:53.736Z,14.20
2022-11-05T12:03:17.152Z,14.32
2022-11-05T12:08:36.180Z,14.35
2022-11-05T12:13:52.830Z,14.42
2022-11-05T12:19:06.817Z,14.35
2022-11-05T12:24:24.150Z,14.43
2022-11-05T12:29:42.669Z,14.32
2022-11-05T12:34:47.752Z,14.39
2022-11-05T12:39:52.258Z,14.51
2022-11-05T12:44:54.097Z,14.56
2022-11-05T12:50:17.024Z,14.61
2022-11-05T12:55:34.011Z,14.69
2022-11-05T13:00:37.263Z,14.77
2022-11-05T13:05:46.436Z,14.76
2022-11-05T13:11:12.163Z,14.87
2022-11-05T13:16:23.030Z,14.83
2022-11-05T13:21:28.599Z,14.82
2022-11-05T13:26:50.534Z,14.91
2022-11-05T13:31:58.891Z,15.07
2022-11-05T13:37:22.665Z,15.00
2022-11-05T13:42:39.475Z,15.21
2022-11-05T13:47:59.620Z,15.24
2022-11-05T13:53:13.740Z,15.25
2022-11-05T13:58:31.053Z,15.31
2022-11-05T14:03:33.166Z,15.35
2022-11-05T14:08:43.364Z,15.41
2022-11-05T14:13:46.003Z,15.33
2022-11-05T14:19:14.931Z,15.29
2022-11-05T14:24:23.024Z,15.28
2022-11-05T14:29:25.103Z,15.32
2022-11-05T14:34:47.379Z,15.29
2022-11-05T14:39:49.423Z,15.34
2022-11-05T14:45:20.562Z,15.29
2022-11-05T14:50:28.006Z,15.27
2022-11-05T14:55:33.490Z,15.25
2022-11-05T15:00:36.887Z,15.21
2022-11-05T15:05:50.379Z,15.09
2022-11-05T15:10:54.883Z,15.21
2022-11-05T15:15:56.958Z,15.21
2022-11-05T15:21:01.492Z,15.16
2022-11-05T15:26:06.269Z,15.28
2022-11-05T15:31:13.998Z,15.29
2022-11-05T15:36:29.809Z,15.28
2022-11-05T15:41:34.498Z,15.16
2022-11-05T15:46:36.824Z,15.19
2022-11-05T15:51:38.785Z,15.23
2022-11-05T15:56:48.418Z,15.22
2022-11-05T16:01:54.121Z,15.20
2022-11-05T16:07:10.423Z,15.03
2022-11-05T16:12:18.847Z,14.88
2022-11-05T16:17:23.368Z,14.64
2022-11-05T16:22:25.705Z,14.35
2022-11-05T16:27:27.876Z,14.26
2022-11-05T16:32:31.563Z,14.13
2022-11-05T16:37:41.359Z,14.04
2022-11-05T16:42:43.950Z,13.95
2022-11-05T16:47:46.584Z,13.84
2022-11-05T16:52:48.673Z,13.78
2022-11-05T16:57:53.656Z,13.66
2022-11-05T17:02:55.860Z,13.57
2022-11-05T17:07:58.346Z,13.45
2022-11-05T17:13:00.379Z,13.36
2022-11-05T17:18:03.637Z,13.25
2022-11-05T17:23:06.250Z,13.18
2022-11-05T17:28:09.353Z,13.05
2022-11-05T17:33:12.825Z,12.99
2022-11-05T17:38:15.262Z,12.91
2022-11-05T17:43:17.693Z,12.84
2022-11-05T17:48:20.615Z,12.76
2022-11-05T17:53:22.692Z,12.65
2022-11-05T17:58:24.762Z,12.61
2022-11-05T18:03:26.745Z,12.49
2022-11-05T18:08:28.903Z,12.36
2022-11-05T18:13:30.794Z,12.34
2022-11-05T18:18:32.813Z,12.21
2022-11-05T18:23:34.662Z,12.19
2022-11-05T18:28:36.862Z,12.17
2022-11-05T18:33:38.697Z,12.01
2022-11-05T18:38:40.823Z,11.93
2022-11-05T18:43:43.094Z,11.89
2022-11-05T18:48:45.223Z,11.83
2022-11-05T18:53:47.351Z,11.73
2022-11-05T18:58:50.580Z,11.69
2022-11-05T19:03:54.590Z,11.63
2022-11-05T19:08:57.368Z,11.62
2022-11-05T19:14:00.400Z,11.51
2022-11-05T19:19:04.302Z,11.40
2022-11-05T19:24:06.487Z,11.31
2022-11-05T19:29:08.406Z,11.29
2022-11-05T19:34:10.760Z,11.28
2022-11-05T19:39:14.702Z,11.20
2022-11-05T19:44:16.637Z,11.14
2022-11-05T19:49:18.579Z,10.99
2022-11-05T19:54:20.849Z,10.94
2022-11-05T19:59:22.860Z,10.91
2022-11-05T20:04:24.967Z,10.78
2022-11-05T20:09:26.877Z,10.90
2022-11-05T20:14:29.779Z,10.80
2022-11-05T20:19:31.898Z,10.70
2022-11-05T20:24:33.832Z,10.60
2022-11-05T20:29:36.098Z,10.61
2022-11-05T20:34:38.581Z,10.49
2022-11-05T20:39:41.084Z,10.49
2022-11-05T20:44:43.834Z,10.27
2022-11-05T20:49:45.757Z,10.30
2022-11-05T20:54:48.271Z,10.25
2022-11-05T20:59:50.247Z,10.21
2022-11-05T21:04:52.237Z,10.14
2022-11-05T21:09:54.122Z,10.12
2022-11-05T21:14:56.353Z,10.10
2022-11-05T21:19:58.350Z,10.04
2022-11-05T21:25:00.656Z,10.00
2022-11-05T21:30:03.638Z,9.97
2022-11-05T21:35:05.823Z,9.89
2022-11-05T21:40:08.503Z,9.93
2022-11-05T21:45:11.124Z,9.83
2022-11-05T21:50:17.076Z,9.77
2022-11-05T21:55:40.274Z,9.73
2022-11-05T22:00:42.241Z,9.59
2022-11-05T22:05:44.581Z,9.54
2022-11-05T22:10:47.737Z,9.34
2022-11-05T22:15:56.635Z,9.35
2022-11-05T22:20:58.459Z,9.30
2022-11-05T22:26:01.793Z,9.23
2022-11-05T22:31:03.762Z,9.10
2022-11-05T22:36:06.048Z,9.13
2022-11-05T22:41:13.357Z,9.08
2022-11-05T22:46:18.265Z,9.02
2022-11-05T22:51:21.353Z,9.08
2022-11-05T22:56:26.692Z,8.99
2022-11-05T23:01:29.083Z,8.97
2022-11-05T23:06:51.241Z,8.92
2022-11-05T23:11:53.918Z,8.92
2022-11-05T23:17:14.409Z,8.83
2022-11-05T23:22:39.362Z,8.81
2022-11-05T23:27:41.704Z,8.79
2022-11-05T23:32:43.992Z,8.71
2022-11-05T23:38:04.709Z,8.67
2022-11-05T23:43:25.586Z,8.64
2022-11-05T23:48:36.991Z,8.69
2022-11-05T23:53:40.583Z,8.66
2022-11-05T23:58:43.001Z,8.58
